Time;durP1;ratioP1;P1;durP2;ratioP2;P2;SDS_P1;SDS_P2;PMS_P1;PMS_P2;Temp;Humidity;BMP_temperature;BMP_pressure;BME280_temperature;BME280_humidity;BME280_pressure;Samples;Min_cycle;Max_cycle;Signal;HPM_P1;HPM_P2
2022/11/28 00:01:34;;;;;;;15.50;8.27;;;;;;;5.05;81.38;101518.47;5032201;28;20046;-71
2022/11/28 00:04:03;;;;;;;15.10;8.50;;;;;;;5.11;81.58;101512.16;5043347;28;20395;-70
2022/11/28 00:06:31;;;;;;;13.85;8.00;;;;;;;5.13;81.68;101513.81;5055622;28;20068;-70
2022/11/28 00:09:00;;;;;;;14.68;9.00;;;;;;;5.13;81.63;101508.38;5055314;28;20049;-70
2022/11/28 00:11:27;;;;;;;14.90;9.32;;;;;;;5.14;82.89;101504.63;5054215;28;20048;-69
2022/11/28 00:13:55;;;;;;;18.75;9.20;;;;;;;5.14;82.27;101504.63;5047097;28;20045;-70
2022/11/28 00:16:23;;;;;;;15.10;9.77;;;;;;;5.15;82.80;101498.13;5036158;28;20484;-70
2022/11/28 00:18:53;;;;;;;14.77;9.15;;;;;;;5.18;82.93;101495.81;5043317;28;20045;-70
2022/11/28 00:21:22;;;;;;;17.85;10.15;;;;;;;5.26;82.54;101492.00;5055502;28;20041;-70
2022/11/28 00:23:50;;;;;;;17.35;9.55;;;;;;;5.23;83.56;101492.44;5053027;28;20055;-70
2022/11/28 00:26:24;;;;;;;17.75;9.88;;;;;;;5.18;83.25;101486.84;5055782;28;20059;-70
2022/11/28 00:28:54;;;;;;;15.65;9.48;;;;;;;5.18;83.62;101489.56;5054594;28;20041;-71
2022/11/28 00:31:25;;;;;;;16.73;9.35;;;;;;;5.22;83.30;101480.75;5055362;28;20522;-70
2022/11/28 00:33:53;;;;;;;15.32;9.50;;;;;;;5.15;83.37;101471.84;5040626;28;20128;-70
2022/11/28 00:36:21;;;;;;;15.85;9.68;;;;;;;5.17;83.37;101482.44;5040203;28;20400;-70
2022/11/28 00:38:50;;;;;;;14.70;9.60;;;;;;;5.24;84.07;101488.69;5055774;28;20041;-70
2022/11/28 00:41:27;;;;;;;15.57;9.93;;;;;;;5.29;84.12;101486.13;5036400;28;20054;-70
2022/11/28 00:43:56;;;;;;;15.95;9.02;;;;;;;5.28;83.53;101479.03;5039573;28;20416;-70
2022/11/28 00:46:24;;;;;;;19.00;10.02;;;;;;;5.25;82.81;101479.47;5054622;28;20045;-69
2022/11/28 00:48:53;;;;;;;17.90;9.10;;;;;;;5.21;82.51;101480.97;5053525;28;20052;-70
2022/11/28 00:51:24;;;;;;;19.17;10.00;;;;;;;5.20;82.28;101488.28;5053774;28;20041;-71
2022/11/28 00:53:53;;;;;;;16.90;8.40;;;;;;;5.20;81.73;101473.88;5041539;28;20056;-70
2022/11/28 00:56:28;;;;;;;17.42;9.73;;;;;;;5.22;81.97;101474.47;5035256;28;20042;-71
2022/11/28 00:58:56;;;;;;;21.65;10.98;;;;;;;5.20;81.25;101472.00;5033797;28;20049;-71
2022/11/28 01:01:34;;;;;;;19.88;9.27;;;;;;;5.23;81.17;101471.56;5034198;28;20396;-70
2022/11/28 01:04:05;;;;;;;19.67;9.20;;;;;;;5.17;81.46;101477.88;5045050;28;20052;-71
2022/11/28 01:06:37;;;;;;;15.82;9.25;;;;;;;5.22;81.75;101469.91;5054255;28;20052;-70
2022/11/28 01:09:15;;;;;;;12.43;8.30;;;;;;;5.21;82.56;101467.41;5054304;28;20049;-70
2022/11/28 01:11:45;;;;;;;13.20;8.55;;;;;;;5.20;82.46;101455.72;5053261;28;20036;-70
2022/11/28 01:14:12;;;;;;;18.60;8.73;;;;;;;5.17;83.91;101452.59;5051730;28;20052;-70
2022/11/28 01:16:40;;;;;;;17.27;9.32;;;;;;;5.16;83.12;101448.22;5055043;28;20079;-70
2022/11/28 01:19:08;;;;;;;15.65;8.65;;;;;;;5.16;83.67;101450.94;5042468;28;20077;-70
2022/11/28 01:21:36;;;;;;;18.25;10.13;;;;;;;5.25;83.28;101450.44;5034479;28;20049;-70
2022/11/28 01:24:05;;;;;;;14.55;8.43;;;;;;;5.25;83.55;101442.28;5052565;28;20049;-70
2022/11/28 01:26:33;;;;;;;13.50;8.18;;;;;;;5.29;83.73;101456.28;5050028;28;20041;-70
2022/11/28 01:29:01;;;;;;;16.77;9.23;;;;;;;5.34;83.83;101440.13;5034551;28;20049;-70
2022/11/28 01:31:29;;;;;;;17.15;9.77;;;;;;;5.34;83.95;101440.13;5033972;28;20060;-70
2022/11/28 01:33:58;;;;;;;16.52;9.60;;;;;;;5.37;83.94;101439.69;5036430;28;20049;-70
2022/11/28 01:36:26;;;;;;;14.60;8.73;;;;;;;5.30;84.70;101438.94;5014061;28;20041;-70
2022/11/28 01:38:54;;;;;;;16.88;8.60;;;;;;;5.35;84.89;101439.09;5013355;28;20045;-70
2022/11/28 01:41:25;;;;;;;13.05;8.60;;;;;;;5.37;84.40;101423.41;5032556;28;20407;-70
2022/11/28 01:44:28;;;;;;;16.02;8.52;;;;;;;5.44;85.24;101425.22;5033503;28;20057;-70
2022/11/28 01:46:56;;;;;;;13.27;8.40;;;;;;;5.41;84.84;101423.78;5038185;28;20491;-69
2022/11/28 01:49:44;;;;;;;15.18;8.55;;;;;;;5.38;84.26;101429.69;5034361;28;20056;-69
2022/11/28 01:52:16;;;;;;;12.82;8.02;;;;;;;5.34;84.34;101428.47;5034152;28;20396;-70
2022/11/28 01:54:51;;;;;;;15.07;8.60;;;;;;;5.36;84.41;101418.19;5043798;28;20060;-70
2022/11/28 01:57:22;;;;;;;15.48;8.45;;;;;;;5.41;85.23;101414.81;5052976;28;20064;-70
2022/11/28 02:00:06;;;;;;;13.98;7.93;;;;;;;5.43;84.87;101420.84;5053918;28;20526;-70
2022/11/28 02:02:51;;;;;;;12.60;8.15;;;;;;;5.48;84.24;101423.72;5053104;28;20365;-70
2022/11/28 02:05:21;;;;;;;13.77;7.65;;;;;;;5.52;83.62;101414.06;5051720;28;20053;-70
2022/11/28 02:07:50;;;;;;;12.65;6.72;;;;;;;5.76;82.08;101408.78;5037528;28;21546;-70
2022/11/28 02:10:27;;;;;;;10.25;7.00;;;;;;;5.60;82.55;101404.78;5033930;28;20046;-70
2022/11/28 02:13:21;;;;;;;11.65;7.13;;;;;;;5.47;82.89;101412.03;5033867;28;20385;-70
2022/11/28 02:15:51;;;;;;;10.75;7.03;;;;;;;5.47;83.41;101403.88;5048908;28;20490;-70
2022/11/28 02:19:00;;;;;;;10.02;6.85;;;;;;;5.50;83.03;101402.59;5053037;28;20079;-70
2022/11/28 02:21:42;;;;;;;14.68;6.47;;;;;;;5.48;82.55;101402.00;5036743;28;20045;-70
2022/11/28 02:24:29;;;;;;;13.13;6.32;;;;;;;5.40;82.27;101394.16;5043052;28;20048;-71
2022/11/28 02:27:32;;;;;;;12.25;6.53;;;;;;;5.44;82.09;101390.78;5051537;28;20400;-70
2022/11/28 02:30:15;;;;;;;9.77;6.07;;;;;;;5.48;82.15;101383.00;5038238;28;20049;-70
2022/11/28 02:32:55;;;;;;;9.57;5.72;;;;;;;5.50;82.13;101376.31;5033414;28;20057;-70
2022/11/28 02:35:36;;;;;;;9.73;5.70;;;;;;;5.53;82.42;101376.88;5048677;28;20502;-70
2022/11/28 02:38:25;;;;;;;13.88;6.57;;;;;;;5.58;82.62;101368.91;5053441;28;20045;-70
2022/11/28 02:41:35;;;;;;;12.05;6.47;;;;;;;5.80;82.04;101361.09;5051728;28;20060;-71
2022/11/28 02:44:08;;;;;;;9.85;6.00;;;;;;;5.89;82.27;101357.03;5047835;28;20049;-70
2022/11/28 02:46:43;;;;;;;13.40;6.72;;;;;;;5.87;82.78;101356.41;5031462;28;20050;-70
2022/11/28 02:49:34;;;;;;;10.90;6.43;;;;;;;5.83;81.97;101355.22;5036744;28;20124;-70
2022/11/28 02:52:40;;;;;;;9.05;5.90;;;;;;;5.79;82.38;101345.88;5031110;28;20052;-70
2022/11/28 02:55:08;;;;;;;11.60;6.53;;;;;;;5.68;82.22;101338.50;5009597;28;20500;-70
2022/11/28 02:57:38;;;;;;;13.15;6.65;;;;;;;5.68;82.25;101335.78;5032137;28;20068;-70
2022/11/28 03:00:25;;;;;;;8.80;6.00;;;;;;;5.65;82.88;101337.91;5044925;28;20053;-70
2022/11/28 03:03:01;;;;;;;8.13;5.57;;;;;;;5.72;82.76;101336.97;5051428;28;20045;-70
2022/11/28 03:05:42;;;;;;;10.38;6.00;;;;;;;5.68;81.93;101335.78;5051304;28;20056;-70
2022/11/28 03:08:22;;;;;;;11.40;5.68;;;;;;;5.76;82.07;101332.72;5051222;28;20514;-70
2022/11/28 03:11:11;;;;;;;7.60;5.63;;;;;;;5.73;82.22;101328.59;5051714;28;20045;-70
2022/11/28 03:13:55;;;;;;;9.15;5.65;;;;;;;5.71;81.75;101338.84;5042042;28;20049;-70
2022/11/28 03:16:47;;;;;;;7.00;5.27;;;;;;;5.74;81.65;101329.44;5032642;28;20061;-70
2022/11/28 03:19:41;;;;;;;9.15;5.22;;;;;;;5.73;82.42;101325.06;5038253;28;20400;-70
2022/11/28 03:22:21;;;;;;;7.93;5.20;;;;;;;5.74;82.98;101334.84;5052823;28;20479;-70
2022/11/28 03:24:56;;;;;;;7.93;6.10;;;;;;;5.80;81.98;101328.50;5045373;28;20132;-71
2022/11/28 03:27:44;;;;;;;8.65;5.80;;;;;;;5.84;82.09;101337.88;5051941;28;20055;-70
2022/11/28 03:30:20;;;;;;;7.95;5.53;;;;;;;5.80;82.48;101333.94;5038775;28;20388;-70
2022/11/28 03:32:53;;;;;;;8.18;5.22;;;;;;;5.84;82.49;101335.16;5031738;28;20396;-70
2022/11/28 03:35:27;;;;;;;9.23;5.38;;;;;;;5.81;82.69;101340.22;5044614;28;20052;-70
2022/11/28 03:38:06;;;;;;;7.88;4.78;;;;;;;5.80;82.19;101344.81;5052376;28;20053;-70
2022/11/28 03:40:41;;;;;;;8.52;4.65;;;;;;;5.84;82.29;101329.72;5032534;28;20050;-70
2022/11/28 03:43:14;;;;;;;8.82;5.18;;;;;;;5.79;81.71;101341.25;5050538;28;20053;-70
2022/11/28 03:45:50;;;;;;;8.90;4.93;;;;;;;5.80;81.32;101339.38;5051856;28;20060;-70
2022/11/28 03:48:26;;;;;;;7.38;5.47;;;;;;;5.76;81.66;101341.72;5051991;28;20053;-71
2022/11/28 03:51:13;;;;;;;8.00;5.20;;;;;;;5.79;81.89;101332.28;5050885;28;20075;-71
2022/11/28 03:53:55;;;;;;;7.70;5.50;;;;;;;5.80;82.33;101317.66;5051996;28;20060;-70
2022/11/28 03:56:37;;;;;;;7.65;4.97;;;;;;;5.83;81.19;101328.06;5052609;28;20049;-70
2022/11/28 03:59:21;;;;;;;6.32;4.78;;;;;;;5.81;82.82;101323.91;5042371;28;20046;-69
2022/11/28 04:02:31;;;;;;;8.18;5.15;;;;;;;5.76;83.38;101317.28;5034289;28;20052;-70
2022/11/28 04:05:11;;;;;;;11.43;5.80;;;;;;;5.77;83.32;101320.84;5031185;28;20064;-70
2022/11/28 04:07:46;;;;;;;8.60;4.90;;;;;;;5.79;83.22;101321.41;5031971;28;20049;-70
2022/11/28 04:10:46;;;;;;;9.80;5.70;;;;;;;5.72;82.91;101320.69;5047682;28;20037;-71
2022/11/28 04:13:27;;;;;;;7.40;5.13;;;;;;;5.73;82.70;101316.91;5045541;28;20515;-70
2022/11/28 04:16:04;;;;;;;10.70;5.35;;;;;;;5.88;82.60;101319.22;5031777;28;20508;-70
2022/11/28 04:18:44;;;;;;;8.82;5.38;;;;;;;5.96;81.74;101323.50;5033602;28;20058;-70
2022/11/28 04:21:40;;;;;;;10.00;5.82;;;;;;;5.96;81.39;101321.59;5051035;28;20400;-70
2022/11/28 04:24:16;;;;;;;9.20;4.82;;;;;;;5.88;82.39;101320.03;5048110;28;20044;-71
2022/11/28 04:26:51;;;;;;;9.73;5.55;;;;;;;5.88;82.32;101311.88;5037913;28;20060;-70
2022/11/28 04:29:22;;;;;;;8.48;4.72;;;;;;;6.00;80.63;101313.81;5050805;28;20060;-70
2022/11/28 04:31:54;;;;;;;7.28;4.97;;;;;;;5.98;81.57;101313.22;5051493;28;20392;-70
2022/11/28 04:34:24;;;;;;;6.72;4.60;;;;;;;5.91;81.13;101310.59;5043616;28;20045;-69
2022/11/28 04:36:57;;;;;;;8.30;5.15;;;;;;;5.87;80.86;101306.69;5031669;28;20038;-70
2022/11/28 04:39:29;;;;;;;8.73;5.50;;;;;;;5.96;80.73;101304.50;5036488;28;20045;-70
2022/11/28 04:42:20;;;;;;;7.63;5.05;;;;;;;6.04;81.22;101313.19;5034571;28;20037;-69
2022/11/28 04:44:57;;;;;;;7.78;5.22;;;;;;;5.99;79.91;101295.84;5026210;28;20511;-70
2022/11/28 04:47:25;;;;;;;9.60;5.47;;;;;;;5.95;80.90;101302.84;5010397;28;20042;-70
2022/11/28 04:49:53;;;;;;;10.15;5.32;;;;;;;6.02;80.36;101298.13;5031297;28;20049;-70
2022/11/28 04:52:27;;;;;;;8.05;4.90;;;;;;;6.04;79.71;101301.47;5029304;28;20056;-70
2022/11/28 04:55:06;;;;;;;11.15;5.28;;;;;;;6.04;79.98;101296.03;5032063;28;20049;-69
2022/11/28 04:57:41;;;;;;;9.07;5.50;;;;;;;6.12;80.09;101297.59;5034487;28;20053;-70
2022/11/28 05:00:14;;;;;;;7.90;4.75;;;;;;;6.12;80.72;101309.28;5034750;28;20053;-70
2022/11/28 05:02:46;;;;;;;7.13;5.18;;;;;;;6.13;80.47;101294.66;5041951;28;20049;-69
2022/11/28 05:05:23;;;;;;;7.80;5.35;;;;;;;6.02;80.77;101298.13;5032881;28;20507;-71
2022/11/28 05:07:52;;;;;;;9.18;4.43;;;;;;;6.03;80.64;101300.63;5034993;28;20053;-70
2022/11/28 05:10:20;;;;;;;8.43;5.38;;;;;;;6.07;80.36;101290.16;5047816;28;20047;-70
2022/11/28 05:12:48;;;;;;;9.23;5.10;;;;;;;6.03;80.96;101291.66;5051266;28;20049;-70
2022/11/28 05:15:17;;;;;;;8.35;5.65;;;;;;;6.05;81.29;101282.22;5053062;28;20409;-70
2022/11/28 05:17:46;;;;;;;9.05;5.15;;;;;;;6.03;81.72;101278.06;5054512;28;20056;-70
2022/11/28 05:20:14;;;;;;;9.77;5.70;;;;;;;6.09;80.71;101274.44;5053456;28;20057;-70
2022/11/28 05:22:42;;;;;;;14.38;7.80;;;;;;;6.13;79.65;101272.91;5054179;28;20060;-70
2022/11/28 05:25:10;;;;;;;15.15;6.93;;;;;;;6.21;80.61;101268.19;5054005;28;20049;-71
2022/11/28 05:27:37;;;;;;;15.35;6.70;;;;;;;6.18;81.49;101258.63;5046869;28;20060;-80
2022/11/28 05:30:10;;;;;;;16.98;7.10;;;;;;;6.39;80.72;101265.38;5046438;28;20049;-70
2022/11/28 05:32:38;;;;;;;12.50;6.75;;;;;;;6.38;79.64;101260.16;5036660;28;20405;-70
2022/11/28 05:35:06;;;;;;;12.25;6.05;;;;;;;6.32;80.64;101259.22;5032872;28;20041;-70
2022/11/28 05:37:35;;;;;;;13.90;5.68;;;;;;;6.34;79.69;101272.59;5032923;28;20492;-71
2022/11/28 05:40:03;;;;;;;10.05;5.78;;;;;;;6.30;80.16;101264.91;5033975;28;20045;-69
2022/11/28 05:42:33;;;;;;;10.02;5.20;;;;;;;6.29;80.19;101270.56;5040454;28;20068;-71
2022/11/28 05:45:01;;;;;;;9.43;5.32;;;;;;;6.37;80.73;101272.09;5034010;28;20045;-71
2022/11/28 05:47:32;;;;;;;8.75;5.57;;;;;;;6.42;80.13;101273.09;5033804;28;20400;-71
2022/11/28 05:50:00;;;;;;;10.13;5.93;;;;;;;6.38;80.17;101268.31;5033316;28;20060;-71
2022/11/28 05:52:31;;;;;;;11.07;5.93;;;;;;;6.41;80.92;101265.97;5032842;28;20393;-71
2022/11/28 05:55:00;;;;;;;10.73;6.75;;;;;;;6.38;80.69;101273.75;5032597;28;20049;-70
2022/11/28 05:57:30;;;;;;;12.50;6.43;;;;;;;6.44;81.21;101276.38;5031442;28;20037;-71
2022/11/28 05:59:58;;;;;;;10.88;6.10;;;;;;;6.39;81.97;101276.25;5042187;28;20054;-69
2022/11/28 06:02:26;;;;;;;9.98;6.65;;;;;;;6.38;81.89;101281.91;5032361;28;20033;-70
2022/11/28 06:04:54;;;;;;;11.10;5.35;;;;;;;6.40;82.26;101274.38;5030207;28;20036;-69
2022/11/28 06:07:22;;;;;;;7.80;5.55;;;;;;;6.43;81.31;101272.00;5032867;28;20072;-70
2022/11/28 06:09:50;;;;;;;9.10;5.53;;;;;;;6.38;82.01;101282.75;5035819;28;20058;-69
2022/11/28 06:12:18;;;;;;;9.95;5.70;;;;;;;6.38;80.90;101279.19;5016311;28;20045;-69
2022/11/28 06:14:46;;;;;;;10.50;5.85;;;;;;;6.41;80.24;101279.56;5012447;28;20042;-69
2022/11/28 06:17:14;;;;;;;7.30;5.07;;;;;;;6.36;80.29;101275.91;5012439;28;20054;-69
2022/11/28 06:19:42;;;;;;;7.00;4.85;;;;;;;6.31;79.73;101279.31;5013356;28;20049;-70
2022/11/28 06:22:10;;;;;;;10.25;4.97;;;;;;;6.28;80.05;101274.34;5020922;28;20049;-69
2022/11/28 06:24:38;;;;;;;10.27;5.03;;;;;;;6.29;80.13;101273.28;5026620;28;20045;-69
2022/11/28 06:27:06;;;;;;;8.38;5.13;;;;;;;6.25;79.74;101270.19;5024823;28;20046;-69
2022/11/28 06:29:33;;;;;;;8.00;5.07;;;;;;;6.28;80.22;101274.34;5022624;28;21266;-69
2022/11/28 06:32:01;;;;;;;6.68;5.05;;;;;;;6.26;80.12;101265.59;5026036;28;20046;-71
2022/11/28 06:34:31;;;;;;;8.18;4.70;;;;;;;6.24;80.92;101259.56;5030991;28;20037;-70
2022/11/28 06:36:59;;;;;;;10.93;5.32;;;;;;;6.25;79.99;101253.09;5028686;28;20041;-69
2022/11/28 06:39:26;;;;;;;8.98;5.13;;;;;;;6.24;79.83;101263.09;5031821;28;20044;-69
2022/11/28 06:41:54;;;;;;;9.38;5.00;;;;;;;6.25;79.94;101261.22;5032071;28;20483;-70
2022/11/28 06:44:22;;;;;;;8.70;4.88;;;;;;;6.30;79.96;101251.31;5031765;28;20057;-70
2022/11/28 06:46:50;;;;;;;9.48;5.00;;;;;;;6.45;78.47;101241.84;5031702;28;20052;-69
2022/11/28 06:49:18;;;;;;;9.02;6.15;;;;;;;6.59;78.43;101242.44;5031395;28;20053;-69
2022/11/28 06:51:46;;;;;;;7.97;5.72;;;;;;;6.76;76.53;101239.00;5031861;28;20048;-69
2022/11/28 06:54:14;;;;;;;7.70;6.05;;;;;;;6.72;77.31;101249.53;5031968;28;20060;-70
2022/11/28 06:56:42;;;;;;;12.52;5.43;;;;;;;6.69;76.47;101241.84;5031874;28;20048;-69
2022/11/28 06:59:10;;;;;;;8.57;5.47;;;;;;;6.59;77.26;101235.13;5029731;28;20049;-70
2022/11/28 07:01:38;;;;;;;7.90;5.35;;;;;;;6.63;77.47;101234.63;5032560;28;20036;-71
2022/11/28 07:04:06;;;;;;;8.15;5.45;;;;;;;6.61;77.01;101234.91;5021499;28;20057;-69
2022/11/28 07:06:34;;;;;;;7.72;4.93;;;;;;;6.64;76.85;101223.53;5029419;28;20046;-70
2022/11/28 07:09:02;;;;;;;7.63;5.03;;;;;;;6.72;75.02;101235.94;5028970;28;20057;-70
2022/11/28 07:11:31;;;;;;;8.95;5.47;;;;;;;6.76;75.34;101230.84;5028795;28;20064;-70
2022/11/28 07:14:01;;;;;;;9.50;5.25;;;;;;;6.69;75.35;101231.81;5030133;28;20045;-70
2022/11/28 07:16:31;;;;;;;8.70;5.28;;;;;;;6.69;76.09;101230.97;5028655;28;20037;-70
2022/11/28 07:19:00;;;;;;;8.50;5.40;;;;;;;6.76;75.87;101236.28;5031340;28;20065;-71
2022/11/28 07:21:28;;;;;;;9.80;4.82;;;;;;;6.80;76.50;101221.16;5019099;28;20408;-70
2022/11/28 07:23:58;;;;;;;11.57;5.78;;;;;;;6.77;77.53;101227.06;5019587;28;20048;-69
2022/11/28 07:26:26;;;;;;;10.77;6.18;;;;;;;6.79;77.27;101230.38;5029160;28;20053;-70
2022/11/28 07:28:57;;;;;;;9.73;5.63;;;;;;;6.88;77.08;101231.66;5017233;28;20493;-70
2022/11/28 07:31:30;;;;;;;10.32;5.10;;;;;;;6.85;76.95;101224.81;5029347;28;20052;-70
2022/11/28 07:34:01;;;;;;;7.57;4.60;;;;;;;6.92;76.53;101229.28;5031805;28;20385;-70
2022/11/28 07:36:29;;;;;;;8.57;5.25;;;;;;;6.98;75.89;101234.59;5028424;28;20046;-70
2022/11/28 07:38:59;;;;;;;10.23;5.47;;;;;;;6.87;76.19;101232.72;5030173;28;20595;-70
2022/11/28 07:41:28;;;;;;;15.48;6.10;;;;;;;6.86;76.06;101226.44;5014640;28;20053;-70
2022/11/28 07:44:00;;;;;;;10.68;6.03;;;;;;;6.90;76.95;101224.09;5028630;28;20049;-70
2022/11/28 07:46:29;;;;;;;9.80;5.10;;;;;;;6.94;77.03;101227.97;5029528;28;20061;-71
2022/11/28 07:48:58;;;;;;;8.93;5.40;;;;;;;6.99;76.15;101233.53;5027339;28;20512;-71
2022/11/28 07:51:29;;;;;;;10.60;5.45;;;;;;;7.05;74.43;101239.09;5031469;28;20053;-71
2022/11/28 07:53:57;;;;;;;7.82;5.25;;;;;;;7.06;73.96;101238.03;5030566;28;20045;-71
2022/11/28 07:56:28;;;;;;;9.13;5.13;;;;;;;7.09;75.23;101218.50;5031799;28;20057;-71
2022/11/28 07:59:16;;;;;;;8.32;5.57;;;;;;;7.03;73.83;101208.59;5024078;28;20045;-71
2022/11/28 08:01:44;;;;;;;7.90;5.90;;;;;;;7.15;72.75;101220.25;5013912;28;20042;-70
2022/11/28 08:04:12;;;;;;;7.32;5.40;;;;;;;7.29;73.03;101212.66;5031085;28;20377;-70
2022/11/28 08:06:43;;;;;;;13.23;5.53;;;;;;;7.34;71.99;101211.91;5030676;28;20392;-70
2022/11/28 08:09:11;;;;;;;12.07;5.25;;;;;;;7.36;73.29;101204.31;5011367;28;20397;-70
2022/11/28 08:11:39;;;;;;;11.25;5.25;;;;;;;7.36;72.94;101194.25;5023746;28;20065;-71
2022/11/28 08:14:08;;;;;;;7.45;5.20;;;;;;;7.53;72.32;101190.75;5031344;28;20076;-70
2022/11/28 08:16:39;;;;;;;10.60;5.38;;;;;;;7.23;73.57;101189.91;5021462;28;20056;-71
2022/11/28 08:19:07;;;;;;;11.45;6.60;;;;;;;7.43;74.63;101210.44;5031452;28;20388;-70
2022/11/28 08:21:36;;;;;;;13.85;6.63;;;;;;;7.39;74.27;101206.56;5020896;28;20070;-70
2022/11/28 08:24:06;;;;;;;12.45;6.88;;;;;;;7.52;74.23;101199.97;5014032;28;20041;-70
2022/11/28 08:26:35;;;;;;;9.90;6.38;;;;;;;7.44;74.62;101198.50;5016172;28;20062;-71
2022/11/28 08:29:03;;;;;;;15.57;6.15;;;;;;;7.39;75.61;101193.75;5029070;28;20080;-71
2022/11/28 08:31:34;;;;;;;9.88;6.10;;;;;;;7.43;76.72;101199.53;5026477;28;20056;-71
2022/11/28 08:34:06;;;;;;;10.30;6.80;;;;;;;7.65;75.92;101204.31;5023947;28;20037;-71
2022/11/28 08:36:35;;;;;;;12.00;6.07;;;;;;;7.66;75.32;101200.50;5027660;28;20049;-70
2022/11/28 08:39:04;;;;;;;9.23;5.93;;;;;;;7.69;76.51;101197.31;5032584;28;20045;-71
2022/11/28 08:41:56;;;;;;;8.85;5.75;;;;;;;7.77;76.75;101207.00;5033538;28;20482;-71
2022/11/28 08:44:25;;;;;;;7.53;5.57;;;;;;;7.86;75.73;101210.94;5033524;28;20045;-71
2022/11/28 08:46:54;;;;;;;10.30;5.85;;;;;;;7.87;76.57;101203.59;5016633;28;20049;-71
2022/11/28 08:49:22;;;;;;;10.77;5.30;;;;;;;7.87;75.39;101217.25;5020306;28;20392;-71
2022/11/28 08:51:49;;;;;;;8.88;5.53;;;;;;;7.66;76.19;101209.53;5029282;28;20071;-70
2022/11/28 08:54:17;;;;;;;8.75;5.07;;;;;;;7.89;76.54;101210.47;5021825;28;20514;-70
2022/11/28 08:56:47;;;;;;;8.40;5.35;;;;;;;8.01;75.86;101210.38;5022753;28;20058;-70
2022/11/28 08:59:15;;;;;;;13.50;5.40;;;;;;;8.01;76.16;101207.66;5032745;28;20057;-70
2022/11/28 09:01:43;;;;;;;13.27;5.50;;;;;;;8.14;75.87;101211.13;5033058;28;20057;-70
2022/11/28 09:04:11;;;;;;;14.70;6.07;;;;;;;8.19;73.92;101203.03;5038302;28;20065;-70
2022/11/28 09:06:40;;;;;;;13.00;6.38;;;;;;;8.11;75.49;101198.00;5032376;28;20050;-70
2022/11/28 09:09:08;;;;;;;16.92;6.07;;;;;;;8.19;74.56;101189.41;5032247;28;20046;-70
2022/11/28 09:11:37;;;;;;;10.77;5.85;;;;;;;8.09;74.57;101187.34;5033396;28;20055;-71
2022/11/28 09:14:05;;;;;;;9.40;5.32;;;;;;;8.11;74.33;101189.81;5033684;28;20049;-70
2022/11/28 09:16:33;;;;;;;9.15;5.70;;;;;;;8.19;74.49;101189.41;5019454;28;20053;-70
2022/11/28 09:19:01;;;;;;;11.20;5.80;;;;;;;8.12;73.26;101186.03;5025845;28;20041;-70
2022/11/28 09:21:29;;;;;;;12.10;7.43;;;;;;;8.50;74.89;101181.66;5018271;28;20054;-70
2022/11/28 09:23:58;;;;;;;12.25;5.82;;;;;;;8.69;73.39;101184.13;5030623;28;20044;-70
2022/11/28 09:26:26;;;;;;;11.98;6.28;;;;;;;8.96;73.87;101189.69;5031823;28;20037;-71
2022/11/28 09:28:55;;;;;;;14.82;6.03;;;;;;;9.01;71.83;101199.84;5021497;28;20400;-71
2022/11/28 09:31:23;;;;;;;12.27;6.40;;;;;;;9.08;71.98;101196.91;5030127;28;20053;-71
2022/11/28 09:33:52;;;;;;;17.05;6.72;;;;;;;9.14;73.21;101204.91;5032703;28;20049;-70
2022/11/28 09:36:22;;;;;;;14.65;7.30;;;;;;;9.08;73.06;101188.72;5031072;28;20053;-70
2022/11/28 09:38:50;;;;;;;15.27;6.38;;;;;;;9.09;71.79;101193.94;5030986;28;20049;-71
2022/11/28 09:41:27;;;;;;;12.57;6.07;;;;;;;9.39;72.72;101192.63;5032981;28;20045;-71
2022/11/28 09:44:06;;;;;;;11.57;7.35;;;;;;;9.14;73.03;101191.25;5032175;28;20058;-71
2022/11/28 09:46:37;;;;;;;11.50;5.80;;;;;;;9.39;72.80;101191.81;5019496;28;20400;-71
2022/11/28 09:49:34;;;;;;;16.40;6.63;;;;;;;9.42;73.19;101188.56;5030004;28;20392;-71
2022/11/28 09:52:16;;;;;;;10.70;5.97;;;;;;;9.46;71.18;101203.34;5024505;28;20484;-69
2022/11/28 09:55:10;;;;;;;10.32;5.63;;;;;;;9.47;70.89;101201.44;5028354;28;20054;-70
2022/11/28 09:57:44;;;;;;;10.15;5.88;;;;;;;9.44;71.84;101205.53;5032007;28;20045;-71
2022/11/28 10:00:17;;;;;;;11.88;6.05;;;;;;;9.50;70.91;101198.19;5031451;28;20813;-71
2022/11/28 10:02:54;;;;;;;14.00;6.28;;;;;;;9.51;70.37;101199.84;5028286;28;20053;-71
2022/11/28 10:05:41;;;;;;;10.85;7.07;;;;;;;9.48;69.04;101190.25;5013925;28;20054;-72
2022/11/28 10:08:20;;;;;;;14.77;6.25;;;;;;;9.43;70.93;101162.06;5016461;28;20056;-71
2022/11/28 10:11:15;;;;;;;13.02;6.60;;;;;;;9.39;68.57;101175.44;5027910;28;20049;-70
2022/11/28 10:14:15;;;;;;;16.08;6.07;;;;;;;9.58;68.48;101173.13;5031621;28;20053;-71
2022/11/28 10:16:46;;;;;;;11.50;5.47;;;;;;;9.63;68.40;101166.91;5032092;28;20060;-71
2022/11/28 10:19:18;;;;;;;9.77;5.65;;;;;;;9.76;67.75;101174.69;5022632;28;20050;-71
2022/11/28 10:22:12;;;;;;;9.52;6.40;;;;;;;9.79;67.87;101168.69;5031295;28;20053;-71
2022/11/28 10:24:47;;;;;;;13.82;6.22;;;;;;;9.74;67.66;101165.09;5030602;28;20050;-71
2022/11/28 10:27:16;;;;;;;12.98;5.80;;;;;;;10.03;68.19;101178.44;5023986;28;20045;-72
2022/11/28 10:30:16;;;;;;;16.70;6.70;;;;;;;10.04;68.38;101169.16;5026844;28;20399;-71
2022/11/28 10:32:54;;;;;;;11.85;5.93;;;;;;;10.13;68.25;101178.53;5017074;28;20514;-71
2022/11/28 10:35:34;;;;;;;13.25;5.80;;;;;;;10.31;67.81;101174.53;5014947;28;20057;-70
2022/11/28 10:38:10;;;;;;;9.20;5.72;;;;;;;10.36;67.13;101171.00;5011766;28;20053;-71
2022/11/28 10:40:54;;;;;;;10.52;5.93;;;;;;;10.43;65.82;101166.19;5013778;28;20058;-72
2022/11/28 10:43:58;;;;;;;11.88;6.75;;;;;;;10.42;68.37;101166.41;5030175;28;20052;-70
2022/11/28 10:46:41;;;;;;;10.10;6.15;;;;;;;10.60;65.75;101167.91;5022302;28;20061;-71
2022/11/28 10:49:39;;;;;;;10.23;6.07;;;;;;;10.31;67.08;101160.06;5029786;28;20412;-72
2022/11/28 10:52:29;;;;;;;11.07;6.70;;;;;;;10.31;67.30;101149.13;5028574;28;20061;-72
2022/11/28 10:55:07;;;;;;;15.00;7.82;;;;;;;10.42;67.48;101159.00;5024956;28;20120;-70
2022/11/28 10:57:51;;;;;;;15.60;7.35;;;;;;;10.30;65.88;101148.28;5028702;28;20041;-71
2022/11/28 11:00:19;;;;;;;15.32;7.45;;;;;;;10.45;66.30;101139.38;5030827;28;20041;-71
2022/11/28 11:02:53;;;;;;;10.93;7.35;;;;;;;10.41;66.16;101151.09;5030751;28;20045;-70
2022/11/28 11:05:30;;;;;;;17.65;7.57;;;;;;;10.35;66.47;101145.59;5026384;28;20057;-72
2022/11/28 11:08:01;;;;;;;15.68;8.00;;;;;;;10.40;66.60;101147.50;5028794;28;20388;-72
2022/11/28 11:10:37;;;;;;;12.20;7.32;;;;;;;10.53;65.39;101140.78;5030823;28;20044;-70
2022/11/28 11:13:11;;;;;;;16.70;7.35;;;;;;;10.43;65.02;101140.72;5030904;28;20547;-71
2022/11/28 11:15:39;;;;;;;19.50;7.68;;;;;;;10.33;65.25;101131.31;5030027;28;20060;-71
2022/11/28 11:18:25;;;;;;;16.40;7.13;;;;;;;10.28;65.13;101135.94;5016414;28;20045;-71
2022/11/28 11:21:18;;;;;;;14.63;7.97;;;;;;;10.15;66.62;101127.13;5019367;28;20050;-71
2022/11/28 11:23:48;;;;;;;11.85;7.32;;;;;;;10.17;66.41;101122.22;5013323;28;20060;-71
2022/11/28 11:26:25;;;;;;;13.10;6.50;;;;;;;10.22;65.49;101116.78;5029140;28;20455;-70
2022/11/28 11:28:53;;;;;;;14.63;7.75;;;;;;;10.32;65.72;101115.19;5030750;28;20048;-72
2022/11/28 11:31:25;;;;;;;12.23;6.60;;;;;;;10.29;65.04;101115.72;5030317;28;20049;-71
2022/11/28 11:34:14;;;;;;;12.70;7.63;;;;;;;10.36;64.56;101116.28;5020363;28;20049;-71
2022/11/28 11:36:42;;;;;;;13.82;6.90;;;;;;;10.38;64.41;101113.31;5029747;28;20046;-71
2022/11/28 11:39:10;;;;;;;11.18;6.97;;;;;;;10.39;65.83;101112.19;5030344;28;20073;-71
2022/11/28 11:41:42;;;;;;;16.27;7.60;;;;;;;10.43;66.90;101099.69;5030584;28;20837;-71
2022/11/28 11:44:13;;;;;;;15.80;7.78;;;;;;;10.34;67.61;101094.69;5030378;28;20373;-71
2022/11/28 11:46:57;;;;;;;15.48;7.63;;;;;;;10.14;66.78;101091.81;5028044;28;20049;-70
2022/11/28 11:49:38;;;;;;;18.02;7.88;;;;;;;10.35;67.52;101087.28;5034825;28;20060;-71
2022/11/28 11:52:11;;;;;;;13.35;7.18;;;;;;;10.37;67.22;101082.41;5032009;28;20037;-71
2022/11/28 11:54:55;;;;;;;14.43;7.82;;;;;;;10.40;66.32;101078.31;5034159;28;20046;-71
2022/11/28 11:57:50;;;;;;;12.50;7.07;;;;;;;10.41;68.01;101071.75;5014681;28;20034;-72
2022/11/28 12:00:21;;;;;;;15.15;7.78;;;;;;;10.48;66.93;101058.66;5033327;28;20045;-71